createdAt,value
2017-08-01T00:00:07.440Z,14.83
2017-08-01T00:00:20.939Z,14.8
2017-08-01T00:00:33.893Z,14.82
2017-08-01T00:00:47.393Z,14.77
2017-08-01T00:01:00.840Z,14.79
2017-08-01T00:01:14.290Z,14.75
2017-08-01T00:01:27.688Z,14.75
2017-08-01T00:01:40.613Z,14.7
2017-08-01T00:01:54.711Z,14.69
2017-08-01T00:02:06.572Z,14.71
2017-08-01T00:02:20.015Z,14.69
2017-08-01T00:02:33.454Z,14.69
2017-08-01T00:02:46.414Z,14.7
2017-08-01T00:02:59.821Z,14.61
2017-08-01T00:03:12.747Z,14.61
2017-08-01T00:03:25.621Z,14.63
2017-08-01T00:03:38.520Z,14.59
2017-08-01T00:03:51.430Z,14.6
2017-08-01T00:04:04.340Z,14.6
2017-08-01T00:04:17.830Z,14.52
2017-08-01T00:04:31.317Z,14.57
2017-08-01T00:04:44.799Z,14.63
2017-08-01T00:04:58.177Z,14.64
2017-08-01T00:05:11.628Z,14.6
2017-08-01T00:05:25.033Z,14.59
2017-08-01T00:05:38.000Z,14.66
2017-08-01T00:05:51.418Z,14.64
2017-08-01T00:06:04.375Z,14.63
2017-08-01T00:06:17.829Z,14.63
2017-08-01T00:06:31.266Z,14.67
2017-08-01T00:06:44.203Z,14.74
2017-08-01T00:06:57.669Z,14.74
2017-08-01T00:07:10.114Z,14.69
2017-08-01T00:07:23.544Z,14.74
2017-08-01T00:07:36.956Z,14.75
2017-08-01T00:07:50.381Z,14.69
2017-08-01T00:08:03.276Z,14.71
2017-08-01T00:08:15.694Z,14.7
2017-08-01T00:08:28.639Z,14.71
2017-08-01T00:08:41.578Z,14.71
2017-08-01T00:08:54.547Z,14.7
2017-08-01T00:09:07.486Z,14.7
2017-08-01T00:09:20.952Z,14.67
2017-08-01T00:09:34.436Z,14.67
2017-08-01T00:09:47.927Z,14.75
2017-08-01T00:10:01.292Z,14.64
2017-08-01T00:10:13.588Z,14.7
2017-08-01T00:10:27.097Z,14.66
2017-08-01T00:10:40.619Z,14.63
2017-08-01T00:10:54.026Z,14.57
2017-08-01T00:11:07.489Z,14.6
2017-08-01T00:11:20.977Z,14.6
2017-08-01T00:11:34.454Z,14.49
2017-08-01T00:11:47.974Z,14.56
2017-08-01T00:12:01.398Z,14.53
2017-08-01T00:12:14.315Z,14.51
2017-08-01T00:12:27.813Z,14.52
2017-08-01T00:12:40.781Z,14.45
2017-08-01T00:12:54.222Z,14.56
2017-08-01T00:13:07.709Z,14.46
2017-08-01T00:13:20.651Z,14.44
2017-08-01T00:13:34.028Z,14.48
2017-08-01T00:13:47.454Z,14.48
2017-08-01T00:14:00.895Z,14.49
2017-08-01T00:14:13.757Z,14.51
2017-08-01T00:14:27.148Z,14.45
2017-08-01T00:14:40.594Z,14.49
2017-08-01T00:14:54.042Z,14.45
2017-08-01T00:15:07.420Z,14.45
2017-08-01T00:15:20.384Z,14.42
2017-08-01T00:15:33.886Z,14.48
2017-08-01T00:15:47.318Z,14.48
2017-08-01T00:16:00.790Z,14.51
2017-08-01T00:16:14.295Z,14.49
2017-08-01T00:16:26.696Z,14.48
2017-08-01T00:16:40.206Z,14.46
2017-08-01T00:16:53.664Z,14.51
2017-08-01T00:17:08.186Z,14.51
2017-08-01T00:17:21.659Z,14.45
2017-08-01T00:17:35.179Z,14.42
2017-08-01T00:17:48.579Z,14.44
2017-08-01T00:18:02.013Z,14.44
2017-08-01T00:18:15.501Z,14.48
2017-08-01T00:18:28.933Z,14.57
2017-08-01T00:18:42.424Z,14.56
2017-08-01T00:18:55.327Z,14.56
2017-08-01T00:19:08.848Z,14.56
2017-08-01T00:19:22.308Z,14.48
2017-08-01T00:19:35.781Z,14.42
2017-08-01T00:19:49.213Z,14.45
2017-08-01T00:20:01.550Z,14.48
2017-08-01T00:20:15.020Z,14.45
2017-08-01T00:20:28.523Z,14.52
2017-08-01T00:20:41.974Z,14.44
2017-08-01T00:20:54.305Z,14.48
2017-08-01T00:21:07.723Z,14.49
2017-08-01T00:21:21.218Z,14.51
2017-08-01T00:21:34.682Z,14.38
2017-08-01T00:21:47.579Z,14.44
2017-08-01T00:22:00.500Z,14.45
2017-08-01T00:22:12.932Z,14.42
2017-08-01T00:22:26.372Z,14.42
2017-08-01T00:22:39.737Z,14.36
2017-08-01T00:22:53.236Z,14.41
2017-08-01T00:23:06.674Z,14.36
2017-08-01T00:23:20.117Z,14.3
2017-08-01T00:23:32.492Z,14.38
2017-08-01T00:23:45.915Z,14.28
2017-08-01T00:23:58.875Z,14.36
2017-08-01T00:24:11.285Z,14.44
2017-08-01T00:24:24.238Z,14.39
2017-08-01T00:24:37.127Z,14.36
2017-08-01T00:24:50.536Z,14.42
2017-08-01T00:25:03.489Z,14.42
2017-08-01T00:25:15.884Z,14.44
2017-08-01T00:25:28.829Z,14.46
2017-08-01T00:25:41.704Z,14.49
2017-08-01T00:25:55.161Z,14.48
2017-08-01T00:26:08.616Z,14.49
2017-08-01T00:26:22.077Z,14.51
2017-08-01T00:26:35.524Z,14.48
2017-08-01T00:26:48.961Z,14.44
2017-08-01T00:27:01.429Z,14.51
2017-08-01T00:27:15.067Z,14.51
2017-08-01T00:27:28.005Z,14.42
2017-08-01T00:27:41.404Z,14.45
2017-08-01T00:27:54.859Z,14.48
2017-08-01T00:28:08.332Z,14.42
2017-08-01T00:28:21.733Z,14.53
2017-08-01T00:28:34.657Z,14.52
2017-08-01T00:28:48.190Z,14.49
2017-08-01T00:29:01.631Z,14.45
2017-08-01T00:29:15.097Z,14.48
2017-08-01T00:29:28.523Z,14.46
2017-08-01T00:29:41.984Z,14.45
2017-08-01T00:29:55.466Z,14.49
2017-08-01T00:30:08.914Z,14.48
2017-08-01T00:30:22.403Z,14.42
2017-08-01T00:30:35.322Z,14.46
2017-08-01T00:30:48.772Z,14.53
2017-08-01T00:31:02.171Z,14.39
2017-08-01T00:31:15.625Z,14.38
2017-08-01T00:31:29.054Z,14.45
2017-08-01T00:31:41.896Z,14.42
2017-08-01T00:31:55.549Z,14.34
2017-08-01T00:32:09.276Z,14.41
2017-08-01T00:32:22.777Z,14.3
2017-08-01T00:32:35.152Z,14.34
2017-08-01T00:32:48.656Z,14.36
2017-08-01T00:33:02.058Z,14.36
2017-08-01T00:33:15.531Z,14.39
2017-08-01T00:33:28.979Z,14.27
2017-08-01T00:33:42.483Z,14.26
2017-08-01T00:33:55.434Z,14.34
2017-08-01T00:34:08.918Z,14.28
2017-08-01T00:34:22.392Z,14.28
2017-08-01T00:34:35.337Z,14.39
2017-08-01T00:34:48.335Z,14.31
2017-08-01T00:35:01.764Z,14.27
2017-08-01T00:35:15.163Z,14.24
2017-08-01T00:35:28.651Z,14.3
2017-08-01T00:35:41.620Z,14.31
2017-08-01T00:35:54.585Z,14.31
2017-08-01T00:36:07.960Z,14.31
2017-08-01T00:36:21.413Z,14.27
2017-08-01T00:36:34.346Z,14.41
2017-08-01T00:36:47.326Z,14.42
2017-08-01T00:37:00.817Z,14.45
2017-08-01T00:37:13.852Z,14.38
2017-08-01T00:37:27.301Z,14.45
2017-08-01T00:37:40.255Z,14.46
2017-08-01T00:37:53.680Z,14.49
2017-08-01T00:38:07.164Z,14.46
2017-08-01T00:38:20.568Z,14.44
2017-08-01T00:38:33.502Z,14.45
2017-08-01T00:38:46.962Z,14.45
2017-08-01T00:39:00.420Z,14.53
2017-08-01T00:39:13.823Z,14.56
2017-08-01T00:39:27.314Z,14.59
2017-08-01T00:39:40.755Z,14.49
2017-08-01T00:39:54.133Z,14.59
2017-08-01T00:40:07.610Z,14.51
2017-08-01T00:40:20.568Z,14.53
2017-08-01T00:40:34.048Z,14.46
2017-08-01T00:40:47.448Z,14.56
2017-08-01T00:41:00.898Z,14.48
2017-08-01T00:41:13.860Z,14.49
2017-08-01T00:41:26.839Z,14.45
2017-08-01T00:41:39.750Z,14.46
2017-08-01T00:41:53.232Z,14.42
2017-08-01T00:42:06.652Z,14.51
2017-08-01T00:42:20.414Z,14.46
2017-08-01T00:42:33.880Z,14.49
2017-08-01T00:42:47.371Z,14.44
2017-08-01T00:43:00.762Z,14.41
2017-08-01T00:43:14.184Z,14.44
2017-08-01T00:43:27.662Z,14.39
2017-08-01T00:43:41.133Z,14.42
2017-08-01T00:43:54.624Z,14.41
2017-08-01T00:44:07.035Z,14.41
2017-08-01T00:44:20.485Z,14.34
2017-08-01T00:44:33.915Z,14.34
2017-08-01T00:44:47.399Z,14.3
2017-08-01T00:45:00.824Z,14.33
2017-08-01T00:45:13.753Z,14.27
2017-08-01T00:45:26.206Z,14.26
2017-08-01T00:45:39.587Z,14.33
2017-08-01T00:45:51.965Z,14.28
2017-08-01T00:46:04.926Z,14.36
2017-08-01T00:46:18.375Z,14.3
2017-08-01T00:46:31.278Z,14.2
2017-08-01T00:46:44.218Z,14.27
2017-08-01T00:46:57.685Z,14.27
2017-08-01T00:47:10.616Z,14.23
2017-08-01T00:47:24.123Z,14.27
2017-08-01T00:47:37.041Z,14.21
2017-08-01T00:47:50.522Z,14.28
2017-08-01T00:48:03.989Z,14.28
2017-08-01T00:48:16.327Z,14.23
2017-08-01T00:48:29.733Z,14.3
2017-08-01T00:48:43.259Z,14.24
2017-08-01T00:48:56.758Z,14.21
2017-08-01T00:49:09.648Z,14.27
2017-08-01T00:49:23.090Z,14.27
2017-08-01T00:49:36.571Z,14.26
2017-08-01T00:49:49.978Z,14.38
2017-08-01T00:50:03.384Z,14.38
2017-08-01T00:50:16.933Z,14.28
2017-08-01T00:50:30.404Z,14.26
2017-08-01T00:50:43.840Z,14.33
2017-08-01T00:50:56.704Z,14.28
2017-08-01T00:51:10.179Z,14.36
2017-08-01T00:51:23.571Z,14.3
2017-08-01T00:51:36.997Z,14.27
2017-08-01T00:51:49.999Z,14.3
2017-08-01T00:52:03.458Z,14.3
2017-08-01T00:52:17.017Z,14.28
2017-08-01T00:52:28.883Z,14.21
2017-08-01T00:52:42.328Z,14.21
2017-08-01T00:52:55.292Z,14.23
2017-08-01T00:53:08.186Z,14.13
2017-08-01T00:53:21.586Z,14.15
2017-08-01T00:53:35.232Z,14.15
2017-08-01T00:53:48.653Z,14.15
2017-08-01T00:54:02.126Z,14.15
2017-08-01T00:54:15.564Z,14.12
2017-08-01T00:54:28.452Z,14.08
2017-08-01T00:54:41.900Z,14.08
2017-08-01T00:54:54.783Z,14.09
2017-08-01T00:55:08.229Z,14.11
2017-08-01T00:55:21.110Z,14.06
2017-08-01T00:55:33.984Z,14.02
2017-08-01T00:55:47.434Z,14.02
2017-08-01T00:56:00.357Z,14.02
2017-08-01T00:56:13.776Z,13.94
2017-08-01T00:56:27.321Z,14.03
2017-08-01T00:56:40.787Z,13.99
2017-08-01T00:56:54.229Z,14.01
2017-08-01T00:57:07.134Z,13.94
2017-08-01T00:57:20.805Z,14.02
2017-08-01T00:57:34.208Z,14.01
2017-08-01T00:57:47.595Z,14.05
2017-08-01T00:58:00.516Z,14.02
2017-08-01T00:58:13.452Z,14.02
2017-08-01T00:58:26.378Z,14.05
2017-08-01T00:58:39.875Z,14.01
2017-08-01T00:58:52.808Z,14.02
2017-08-01T00:59:05.691Z,14.01
2017-08-01T00:59:18.651Z,13.97
2017-08-01T00:59:32.131Z,14.02
2017-08-01T00:59:44.588Z,14.03
2017-08-01T00:59:58.066Z,14.03
2017-08-01T01:00:11.021Z,14.01
2017-08-01T01:00:24.560Z,14.05
2017-08-01T01:00:37.938Z,14.05
2017-08-01T01:00:51.359Z,14.06
2017-08-01T01:01:04.849Z,14.03
2017-08-01T01:01:18.262Z,14.03
2017-08-01T01:01:31.746Z,13.99
2017-08-01T01:01:45.211Z,13.95
2017-08-01T01:01:58.656Z,14.02
2017-08-01T01:02:12.035Z,14.01
2017-08-01T01:02:25.636Z,13.9
2017-08-01T01:02:38.593Z,14.02
2017-08-01T01:02:51.426Z,14.03
2017-08-01T01:03:04.852Z,13.99
2017-08-01T01:03:17.253Z,13.93
2017-08-01T01:03:30.699Z,13.99
2017-08-01T01:03:44.155Z,13.97
2017-08-01T01:03:57.587Z,13.99
2017-08-01T01:04:10.533Z,13.88
2017-08-01T01:04:23.991Z,13.99
2017-08-01T01:04:37.434Z,13.99
2017-08-01T01:04:50.441Z,14.05
2017-08-01T01:05:03.343Z,13.99
2017-08-01T01:05:16.258Z,13.93
2017-08-01T01:05:29.228Z,13.95
2017-08-01T01:05:42.739Z,13.97
2017-08-01T01:05:55.661Z,13.91
2017-08-01T01:06:08.572Z,14.01
2017-08-01T01:06:21.976Z,13.99
2017-08-01T01:06:35.358Z,14.03
2017-08-01T01:06:48.823Z,13.97
2017-08-01T01:07:02.245Z,13.9
2017-08-01T01:07:15.717Z,13.93
2017-08-01T01:07:29.116Z,13.97
2017-08-01T01:07:42.575Z,13.9
2017-08-01T01:07:56.040Z,13.86
2017-08-01T01:08:09.525Z,13.99
2017-08-01T01:08:22.958Z,13.91
2017-08-01T01:08:36.448Z,13.91
2017-08-01T01:08:49.962Z,13.99
2017-08-01T01:09:03.483Z,13.99
2017-08-01T01:09:16.945Z,13.97
2017-08-01T01:09:29.825Z,14.03
2017-08-01T01:09:43.236Z,14.08
2017-08-01T01:09:56.106Z,14.12
2017-08-01T01:10:09.514Z,14.11
2017-08-01T01:10:22.989Z,14.15
2017-08-01T01:10:36.374Z,14.16
2017-08-01T01:10:49.801Z,14.2
2017-08-01T01:11:02.682Z,14.2
2017-08-01T01:11:16.087Z,14.12
2017-08-01T01:11:29.539Z,14.15
2017-08-01T01:11:42.520Z,14.15
2017-08-01T01:11:56.014Z,14.15
2017-08-01T01:12:09.549Z,14.11
2017-08-01T01:12:23.075Z,14.11
2017-08-01T01:12:36.547Z,14.08
2017-08-01T01:12:49.993Z,14.12
2017-08-01T01:13:02.961Z,14.08
2017-08-01T01:13:16.450Z,14.15
2017-08-01T01:13:29.350Z,14.08
2017-08-01T01:13:42.838Z,14.08
2017-08-01T01:13:56.315Z,14.15
2017-08-01T01:14:09.819Z,14.15
2017-08-01T01:14:23.279Z,14.09
2017-08-01T01:14:36.768Z,14.08
2017-08-01T01:14:50.230Z,14.13
2017-08-01T01:15:03.164Z,14.08
2017-08-01T01:15:16.096Z,14.08
2017-08-01T01:15:29.554Z,14.11
2017-08-01T01:15:42.002Z,14.08
2017-08-01T01:15:55.437Z,14.12
2017-08-01T01:16:08.958Z,14.11
2017-08-01T01:16:22.397Z,14.11
2017-08-01T01:16:35.865Z,14.01
2017-08-01T01:16:49.281Z,14.13
2017-08-01T01:17:02.711Z,14.12
2017-08-01T01:17:16.143Z,14.05
2017-08-01T01:17:29.290Z,14.02
2017-08-01T01:17:42.692Z,14.02
2017-08-01T01:17:55.045Z,14.06
2017-08-01T01:18:08.483Z,14.01
2017-08-01T01:18:21.880Z,14.06
2017-08-01T01:18:35.240Z,14.03
2017-08-01T01:18:48.655Z,14.11
2017-08-01T01:19:02.105Z,14.11
2017-08-01T01:19:15.632Z,14.12
2017-08-01T01:19:29.052Z,14.12
2017-08-01T01:19:42.476Z,14.15
2017-08-01T01:19:55.909Z,14.23
2017-08-01T01:20:09.302Z,14.21
2017-08-01T01:20:22.751Z,14.28
2017-08-01T01:20:36.214Z,14.31
2017-08-01T01:20:49.679Z,14.28
2017-08-01T01:21:02.536Z,14.38
2017-08-01T01:21:15.538Z,14.38
2017-08-01T01:21:28.985Z,14.39
2017-08-01T01:21:42.410Z,14.39
2017-08-01T01:21:55.276Z,14.46
2017-08-01T01:22:08.710Z,14.48
2017-08-01T01:22:22.139Z,14.52
2017-08-01T01:22:35.538Z,14.49
2017-08-01T01:22:48.963Z,14.56
2017-08-01T01:23:02.422Z,14.6
2017-08-01T01:23:15.961Z,14.61
2017-08-01T01:23:29.413Z,14.61
2017-08-01T01:23:42.837Z,14.64
2017-08-01T01:23:56.328Z,14.67
2017-08-01T01:24:09.778Z,14.67
2017-08-01T01:24:23.267Z,14.67
2017-08-01T01:24:36.677Z,14.67
2017-08-01T01:24:49.052Z,14.66
2017-08-01T01:25:02.472Z,14.69
2017-08-01T01:25:15.964Z,14.67
2017-08-01T01:25:29.402Z,14.71
2017-08-01T01:25:42.829Z,14.66
2017-08-01T01:25:56.313Z,14.64
2017-08-01T01:26:09.764Z,14.74
2017-08-01T01:26:23.215Z,14.7
2017-08-01T01:26:36.615Z,14.66
2017-08-01T01:26:50.083Z,14.7
2017-08-01T01:27:03.493Z,14.69
2017-08-01T01:27:16.901Z,14.61
2017-08-01T01:27:29.782Z,14.63
2017-08-01T01:27:43.448Z,14.64
2017-08-01T01:27:56.408Z,14.6
2017-08-01T01:28:09.842Z,14.63
2017-08-01T01:28:23.291Z,14.61
2017-08-01T01:28:36.746Z,14.61
2017-08-01T01:28:50.163Z,14.48
2017-08-01T01:29:03.642Z,14.56
2017-08-01T01:29:17.054Z,14.6
2017-08-01T01:29:29.993Z,14.57
2017-08-01T01:29:43.374Z,14.6
2017-08-01T01:29:56.294Z,14.53
2017-08-01T01:30:09.756Z,14.56
2017-08-01T01:30:23.170Z,14.57
2017-08-01T01:30:36.608Z,14.49
2017-08-01T01:30:49.969Z,14.52
2017-08-01T01:31:03.425Z,14.44
2017-08-01T01:31:16.838Z,14.45
2017-08-01T01:31:29.751Z,14.34
2017-08-01T01:31:43.143Z,14.38
2017-08-01T01:31:56.561Z,14.39
2017-08-01T01:32:09.468Z,14.42
2017-08-01T01:32:22.902Z,14.34
2017-08-01T01:32:36.390Z,14.38
2017-08-01T01:32:49.858Z,14.28
2017-08-01T01:33:03.302Z,14.38
2017-08-01T01:33:16.259Z,14.27
2017-08-01T01:33:29.197Z,14.34
2017-08-01T01:33:42.605Z,14.26
2017-08-01T01:33:56.102Z,14.27
2017-08-01T01:34:09.595Z,14.23
2017-08-01T01:34:23.037Z,14.28
2017-08-01T01:34:36.470Z,14.21
2017-08-01T01:34:49.911Z,14.26
2017-08-01T01:35:03.325Z,14.2
2017-08-01T01:35:16.261Z,14.24
2017-08-01T01:35:28.677Z,14.19
2017-08-01T01:35:42.089Z,14.28
2017-08-01T01:35:53.401Z,14.15
2017-08-01T01:36:06.334Z,14.15
2017-08-01T01:36:19.815Z,14.15
2017-08-01T01:36:33.285Z,14.15
2017-08-01T01:36:46.746Z,14.15
2017-08-01T01:36:59.674Z,14.08
2017-08-01T01:37:13.022Z,14.13
2017-08-01T01:37:25.952Z,14.06
2017-08-01T01:37:39.456Z,14.09
2017-08-01T01:37:52.911Z,14.12
2017-08-01T01:38:06.310Z,14.12
2017-08-01T01:38:19.784Z,14.08
2017-08-01T01:38:32.760Z,14.09
2017-08-01T01:38:46.238Z,14.13
2017-08-01T01:38:59.698Z,14.01
2017-08-01T01:39:13.141Z,14.05
2017-08-01T01:39:24.991Z,14.15
2017-08-01T01:39:38.458Z,14.01
2017-08-01T01:39:50.896Z,13.99
2017-08-01T01:40:03.304Z,14.03
2017-08-01T01:40:16.696Z,13.99
2017-08-01T01:40:30.129Z,14.02
2017-08-01T01:40:43.597Z,14.02
2017-08-01T01:40:57.009Z,13.95
2017-08-01T01:41:10.450Z,13.99
2017-08-01T01:41:23.387Z,14.06
2017-08-01T01:41:36.778Z,14.02
2017-08-01T01:41:50.268Z,14.01
2017-08-01T01:42:03.636Z,13.97
2017-08-01T01:42:16.564Z,14.11
2017-08-01T01:42:29.947Z,14.09
2017-08-01T01:42:43.398Z,14.11
2017-08-01T01:42:56.867Z,14.11
2017-08-01T01:43:10.269Z,14.15
2017-08-01T01:43:23.711Z,14.24
2017-08-01T01:43:37.109Z,14.19
2017-08-01T01:43:50.593Z,14.21
2017-08-01T01:44:04.054Z,14.23
2017-08-01T01:44:16.472Z,14.28
2017-08-01T01:44:29.459Z,14.27
2017-08-01T01:44:42.416Z,14.23
2017-08-01T01:44:55.857Z,14.26
2017-08-01T01:45:09.331Z,14.24
2017-08-01T01:45:22.817Z,14.13
2017-08-01T01:45:35.771Z,14.15
2017-08-01T01:45:48.640Z,14.15
2017-08-01T01:46:02.123Z,14.08
2017-08-01T01:46:15.497Z,14.11
2017-08-01T01:46:28.425Z,14.02
2017-08-01T01:46:41.348Z,14.02
2017-08-01T01:46:54.855Z,14.02
2017-08-01T01:47:08.354Z,14.01
2017-08-01T01:47:21.827Z,13.91
2017-08-01T01:47:34.759Z,13.91
2017-08-01T01:47:48.388Z,13.97
2017-08-01T01:48:01.853Z,13.93
2017-08-01T01:48:14.255Z,13.95
2017-08-01T01:48:27.766Z,13.91
2017-08-01T01:48:41.266Z,13.93
2017-08-01T01:48:54.723Z,13.93
2017-08-01T01:49:08.183Z,13.87
2017-08-01T01:49:21.592Z,13.88
2017-08-01T01:49:35.093Z,13.76
2017-08-01T01:49:48.590Z,13.87
2017-08-01T01:50:02.097Z,13.81
2017-08-01T01:50:15.598Z,13.76
2017-08-01T01:50:29.036Z,13.75
2017-08-01T01:50:42.495Z,13.79
2017-08-01T01:50:55.923Z,13.69
2017-08-01T01:51:09.308Z,13.69
2017-08-01T01:51:22.203Z,13.75
2017-08-01T01:51:35.063Z,13.73
2017-08-01T01:51:47.964Z,13.76
2017-08-01T01:52:00.847Z,13.69
2017-08-01T01:52:13.814Z,13.75
2017-08-01T01:52:26.780Z,13.73
2017-08-01T01:52:40.186Z,13.73
2017-08-01T01:52:53.564Z,13.75
2017-08-01T01:53:07.104Z,13.66
2017-08-01T01:53:20.538Z,13.78
2017-08-01T01:53:32.851Z,13.75
2017-08-01T01:53:46.347Z,13.69
2017-08-01T01:53:59.339Z,13.66
2017-08-01T01:54:12.262Z,13.65
2017-08-01T01:54:25.662Z,13.73
2017-08-01T01:54:39.105Z,13.7
2017-08-01T01:54:52.628Z,13.68
2017-08-01T01:55:06.038Z,13.73
2017-08-01T01:55:19.500Z,13.65
2017-08-01T01:55:32.958Z,13.68
2017-08-01T01:55:46.461Z,13.72
2017-08-01T01:55:59.341Z,13.68
2017-08-01T01:56:12.828Z,13.72
2017-08-01T01:56:26.249Z,13.7
2017-08-01T01:56:39.149Z,13.66
2017-08-01T01:56:52.085Z,13.66
2017-08-01T01:57:05.520Z,13.66
2017-08-01T01:57:18.994Z,13.66
2017-08-01T01:57:32.406Z,13.63
2017-08-01T01:57:46.053Z,13.62
2017-08-01T01:57:59.514Z,13.58
2017-08-01T01:58:12.976Z,13.68
2017-08-01T01:58:25.937Z,13.65
2017-08-01T01:58:39.407Z,13.62
2017-08-01T01:58:52.789Z,13.69
2017-08-01T01:59:06.186Z,13.62
2017-08-01T01:59:19.096Z,13.58
2017-08-01T01:59:32.023Z,13.55
2017-08-01T01:59:45.428Z,13.55
2017-08-01T01:59:58.391Z,13.54
2017-08-01T02:00:11.278Z,13.51
2017-08-01T02:00:24.209Z,13.51
2017-08-01T02:00:37.583Z,13.58
2017-08-01T02:00:51.037Z,13.54
2017-08-01T02:01:03.936Z,13.54
2017-08-01T02:01:16.854Z,13.58
2017-08-01T02:01:29.769Z,13.57
2017-08-01T02:01:43.183Z,13.47
2017-08-01T02:01:56.657Z,13.44
2017-08-01T02:02:10.059Z,13.45
2017-08-01T02:02:23.034Z,13.47
2017-08-01T02:02:36.542Z,13.36
2017-08-01T02:02:49.407Z,13.45
2017-08-01T02:03:02.802Z,13.37
2017-08-01T02:03:16.259Z,13.47
2017-08-01T02:03:29.659Z,13.4
2017-08-01T02:03:42.579Z,13.42
2017-08-01T02:03:55.474Z,13.45
2017-08-01T02:04:09.000Z,13.45
2017-08-01T02:04:22.521Z,13.47
2017-08-01T02:04:35.919Z,13.53
2017-08-01T02:04:48.876Z,13.6
2017-08-01T02:05:02.332Z,13.58
2017-08-01T02:05:15.801Z,13.57
2017-08-01T02:05:29.204Z,13.53
2017-08-01T02:05:42.652Z,13.58
2017-08-01T02:05:56.157Z,13.54
2017-08-01T02:06:09.620Z,13.55
2017-08-01T02:06:22.548Z,13.54
2017-08-01T02:06:35.445Z,13.55
2017-08-01T02:06:48.371Z,13.48
2017-08-01T02:07:01.786Z,13.6
2017-08-01T02:07:15.242Z,13.6
2017-08-01T02:07:28.653Z,13.51
2017-08-01T02:07:41.576Z,13.63
2017-08-01T02:07:54.555Z,13.45
2017-08-01T02:08:06.908Z,13.42
2017-08-01T02:08:19.336Z,13.42
2017-08-01T02:08:32.810Z,13.47
2017-08-01T02:08:46.305Z,13.37
2017-08-01T02:08:59.200Z,13.48
2017-08-01T02:09:12.592Z,13.36
2017-08-01T02:09:24.984Z,13.39
2017-08-01T02:09:37.883Z,13.4
2017-08-01T02:09:51.363Z,13.42
2017-08-01T02:10:04.899Z,13.28
2017-08-01T02:10:17.814Z,13.28
2017-08-01T02:10:31.311Z,13.31
2017-08-01T02:10:44.870Z,13.29
2017-08-01T02:10:58.360Z,13.25
2017-08-01T02:11:11.267Z,13.24
2017-08-01T02:11:24.799Z,13.16
2017-08-01T02:11:37.669Z,13.16
2017-08-01T02:11:51.083Z,13.16
2017-08-01T02:12:03.954Z,13.21
2017-08-01T02:12:16.852Z,13.16
2017-08-01T02:12:29.745Z,13.11
2017-08-01T02:12:43.198Z,13.11
2017-08-01T02:12:56.392Z,13.09
2017-08-01T02:13:09.324Z,13.07
2017-08-01T02:13:22.768Z,13.14
2017-08-01T02:13:35.648Z,13.14
2017-08-01T02:13:48.576Z,13.11
2017-08-01T02:14:01.984Z,13.14
2017-08-01T02:14:14.904Z,13.07
2017-08-01T02:14:28.352Z,13.09
2017-08-01T02:14:41.263Z,13.06
2017-08-01T02:14:54.177Z,12.98
2017-08-01T02:15:07.622Z,12.96
2017-08-01T02:15:21.030Z,12.98
2017-08-01T02:15:33.964Z,12.96
2017-08-01T02:15:47.302Z,12.88
2017-08-01T02:16:00.705Z,12.99
2017-08-01T02:16:13.051Z,12.98
2017-08-01T02:16:26.504Z,12.83
2017-08-01T02:16:39.433Z,12.86
2017-08-01T02:16:52.297Z,12.94
2017-08-01T02:17:05.716Z,12.89
2017-08-01T02:17:19.127Z,12.98
2017-08-01T02:17:32.555Z,12.94
2017-08-01T02:17:45.991Z,12.95
2017-08-01T02:17:59.721Z,12.91
2017-08-01T02:18:13.206Z,12.92
2017-08-01T02:18:26.667Z,12.89
2017-08-01T02:18:39.599Z,12.88
2017-08-01T02:18:52.527Z,12.88
2017-08-01T02:19:05.946Z,12.86
2017-08-01T02:19:19.395Z,12.91
2017-08-01T02:19:32.786Z,12.88
2017-08-01T02:19:45.192Z,12.84
2017-08-01T02:19:58.153Z,12.89
2017-08-01T02:20:11.531Z,12.94
2017-08-01T02:20:24.957Z,12.83
2017-08-01T02:20:38.416Z,12.94
2017-08-01T02:20:51.834Z,12.94
2017-08-01T02:21:05.342Z,12.94
2017-08-01T02:21:18.767Z,12.94
2017-08-01T02:21:32.204Z,12.91
2017-08-01T02:21:45.652Z,12.94
2017-08-01T02:21:58.576Z,12.91
2017-08-01T02:22:11.504Z,12.89
2017-08-01T02:22:25.000Z,12.95
2017-08-01T02:22:38.409Z,12.95
2017-08-01T02:22:51.368Z,12.88
2017-08-01T02:23:04.832Z,12.95
2017-08-01T02:23:18.250Z,12.92
2017-08-01T02:23:31.682Z,12.92
2017-08-01T02:23:44.579Z,12.91
2017-08-01T02:23:57.498Z,12.95
2017-08-01T02:24:09.947Z,12.96
2017-08-01T02:24:23.408Z,12.98
2017-08-01T02:24:36.283Z,12.99
2017-08-01T02:24:49.702Z,12.99
2017-08-01T02:25:02.670Z,12.84
2017-08-01T02:25:16.133Z,12.99
2017-08-01T02:25:29.618Z,12.99
2017-08-01T02:25:43.048Z,12.95
2017-08-01T02:25:56.566Z,12.84
2017-08-01T02:26:10.007Z,12.98
2017-08-01T02:26:23.457Z,12.89
2017-08-01T02:26:36.846Z,12.86
2017-08-01T02:26:50.284Z,12.86
2017-08-01T02:27:03.195Z,12.88
2017-08-01T02:27:16.619Z,12.92
2017-08-01T02:27:30.128Z,13.02
2017-08-01T02:27:42.979Z,12.95
2017-08-01T02:27:56.387Z,12.95
2017-08-01T02:28:10.064Z,12.86
2017-08-01T02:28:23.512Z,12.86
2017-08-01T02:28:37.024Z,12.91
2017-08-01T02:28:50.473Z,12.96
2017-08-01T02:29:03.888Z,12.89
2017-08-01T02:29:17.287Z,12.92
2017-08-01T02:29:30.802Z,12.95
2017-08-01T02:29:44.256Z,12.91
2017-08-01T02:29:57.701Z,12.88
2017-08-01T02:30:10.084Z,12.91
2017-08-01T02:30:23.443Z,12.96
2017-08-01T02:30:36.424Z,12.86
2017-08-01T02:30:49.839Z,12.95
2017-08-01T02:31:03.314Z,12.95
2017-08-01T02:31:16.730Z,12.94
2017-08-01T02:31:30.194Z,12.95
2017-08-01T02:31:43.684Z,12.94
2017-08-01T02:31:57.130Z,12.92
2017-08-01T02:32:10.542Z,12.91
2017-08-01T02:32:23.003Z,12.92
2017-08-01T02:32:36.488Z,12.86
2017-08-01T02:32:49.982Z,12.84
2017-08-01T02:33:02.778Z,12.98
2017-08-01T02:33:16.227Z,12.83
2017-08-01T02:33:29.694Z,12.8
2017-08-01T02:33:43.218Z,12.8
2017-08-01T02:33:55.668Z,12.8
2017-08-01T02:34:09.215Z,12.88
2017-08-01T02:34:22.159Z,12.86
2017-08-01T02:34:35.662Z,12.86
2017-08-01T02:34:49.187Z,12.88
2017-08-01T02:35:02.600Z,12.84
2017-08-01T02:35:15.578Z,12.77
2017-08-01T02:35:29.129Z,12.83
2017-08-01T02:35:42.619Z,12.81
2017-08-01T02:35:55.554Z,12.84
2017-08-01T02:36:08.465Z,12.77
2017-08-01T02:36:21.875Z,12.8
2017-08-01T02:36:34.755Z,12.7
2017-08-01T02:36:48.176Z,12.81
2017-08-01T02:37:01.605Z,12.81
2017-08-01T02:37:14.549Z,12.73
2017-08-01T02:37:27.969Z,12.77
2017-08-01T02:37:41.401Z,12.7
2017-08-01T02:37:54.867Z,12.66
2017-08-01T02:38:07.914Z,12.73
2017-08-01T02:38:21.417Z,12.74
2017-08-01T02:38:34.332Z,12.7
2017-08-01T02:38:47.207Z,12.77
2017-08-01T02:39:00.676Z,12.76
2017-08-01T02:39:14.041Z,12.7
2017-08-01T02:39:27.515Z,12.65
2017-08-01T02:39:40.951Z,12.8
2017-08-01T02:39:54.336Z,12.71
2017-08-01T02:40:08.065Z,12.8
2017-08-01T02:40:21.564Z,12.73
2017-08-01T02:40:34.993Z,12.73
2017-08-01T02:40:48.420Z,12.7
2017-08-01T02:41:01.845Z,12.74
2017-08-01T02:41:15.374Z,12.78
2017-08-01T02:41:28.811Z,12.77
2017-08-01T02:41:42.386Z,12.84
2017-08-01T02:41:55.287Z,12.81
2017-08-01T02:42:08.170Z,12.81
2017-08-01T02:42:21.568Z,12.78
2017-08-01T02:42:34.982Z,12.78
2017-08-01T02:42:47.928Z,12.81
2017-08-01T02:43:01.328Z,12.78
2017-08-01T02:43:13.787Z,12.83
2017-08-01T02:43:26.737Z,12.81
2017-08-01T02:43:40.243Z,12.84
2017-08-01T02:43:53.637Z,12.84
2017-08-01T02:44:06.579Z,12.84
2017-08-01T02:44:20.078Z,12.88
2017-08-01T02:44:33.558Z,12.84
2017-08-01T02:44:46.954Z,12.88
2017-08-01T02:44:59.864Z,12.95
2017-08-01T02:45:13.330Z,12.81
2017-08-01T02:45:26.767Z,12.92
2017-08-01T02:45:40.224Z,12.91
2017-08-01T02:45:53.171Z,12.88
2017-08-01T02:46:06.698Z,12.88
2017-08-01T02:46:19.686Z,12.88
2017-08-01T02:46:33.136Z,12.95
2017-08-01T02:46:46.575Z,12.95
2017-08-01T02:47:00.061Z,12.88
2017-08-01T02:47:12.981Z,12.94
2017-08-01T02:47:26.537Z,12.91
2017-08-01T02:47:39.994Z,12.89
2017-08-01T02:47:53.412Z,12.95
2017-08-01T02:48:06.422Z,12.92
2017-08-01T02:48:20.703Z,12.94
2017-08-01T02:48:34.177Z,12.94
2017-08-01T02:48:47.690Z,12.95
2017-08-01T02:49:01.157Z,12.94
2017-08-01T02:49:14.636Z,12.83
2017-08-01T02:49:28.153Z,12.95
2017-08-01T02:49:41.052Z,12.91
2017-08-01T02:49:54.472Z,12.91
2017-08-01T02:50:07.930Z,12.89
2017-08-01T02:50:21.386Z,12.94
2017-08-01T02:50:34.799Z,12.92
2017-08-01T02:50:48.356Z,12.91
2017-08-01T02:51:01.751Z,12.92
2017-08-01T02:51:15.163Z,12.95